Piedmont, Oklahoma
Current Conditions -  °F | °C
As of 12:53 PM on Saturday 25 Oct 2014 (Local Time) from KPWA Reporting Station
Clear Clear  
Wind Chill: 83°   Ceiling: Unl
Heat Index: 83°   Visibility: 10mi
Dew Point: 59°   Wind: 7mph
Humidity: 44%   Direction: NA
Pressure: 30.08"   Gusts: NA
Location:  35.64°N, 97.75°W
Report Text: KPWA 251753Z VRB06KT 10SM CLR 28/15 A3008 RMK AO2 SLP172 T02830150 10289 20172 58005
Loading
Personal Weather Stations






























Interactive Weather Map
Tropical Storm Tracking
New forecast layout! Learn more

10-Day Weather Forecast

Advertisements
Track Severe Weather on mobile